Time;durP1;ratioP1;P1;durP2;ratioP2;P2;SDS_P1;SDS_P2;PMS_P1;PMS_P2;Temp;Humidity;BMP_temperature;BMP_pressure;BME280_temperature;BME280_humidity;BME280_pressure;Samples;Min_cycle;Max_cycle;Signal;HPM_P1;HPM_P2
2023/09/15 00:00:23;;;;;;;;;;;;;;;;;;4931461;29;19924;-75
2023/09/15 00:02:48;;;;;;;;;;;;;;;;;;4931458;29;19965;-74
2023/09/15 00:05:13;;;;;;;;;;;;;;;;;;4930283;29;19915;-75
2023/09/15 00:07:39;;;;;;;;;;;;;;;;;;4932106;29;20301;-75
2023/09/15 00:10:06;;;;;;;;;;;;;;;;;;4931034;29;19915;-75
2023/09/15 00:12:31;;;;;;;;;;;;;;;;;;4933018;29;19918;-75
2023/09/15 00:14:57;;;;;;;;;;;;;;;;;;4929676;29;19915;-75
2023/09/15 00:17:24;;;;;;;;;;;;;;;;;;4933849;29;19918;-75
2023/09/15 00:19:50;;;;;;;;;;;;;;;;;;4929887;29;20058;-75
2023/09/15 00:22:15;;;;;;;;;;;;;;;;;;4930636;29;19914;-74
2023/09/15 00:24:40;;;;;;;;;;;;;;;;;;4938406;29;19926;-75
2023/09/15 00:27:06;;;;;;;;;;;;;;;;;;4933066;29;19907;-75
2023/09/15 00:29:31;;;;;;;;;;;;;;;;;;4931365;29;19967;-75
2023/09/15 00:31:56;;;;;;;;;;;;;;;;;;4930941;29;20014;-75
2023/09/15 00:34:21;;;;;;;;;;;;;;;;;;4933323;29;20021;-75
2023/09/15 00:36:49;;;;;;;;;;;;;;;;;;4935595;29;19907;-75
2023/09/15 00:39:14;;;;;;;;;;;;;;;;;;4934538;29;20030;-75
2023/09/15 00:41:39;;;;;;;;;;;;;;;;;;4937322;29;19930;-75
2023/09/15 00:44:04;;;;;;;;;;;;;;;;;;4933622;29;19922;-74
2023/09/15 00:46:30;;;;;;;;;;;;;;;;;;4936239;29;19907;-75
2023/09/15 00:48:55;;;;;;;;;;;;;;;;;;4937065;29;19910;-75
2023/09/15 00:51:22;;;;;;;;;;;;;;;;;;4934774;29;19911;-75
2023/09/15 00:53:47;;;;;;;;;;;;;;;;;;4934732;29;19918;-75
2023/09/15 00:56:12;;;;;;;;;;;;;;;;;;4933576;29;19965;-75
2023/09/15 00:58:40;;;;;;;;;;;;;;;;;;4933722;29;19921;-75
2023/09/15 01:01:06;;;;;;;;;;;;;;;;;;4934098;29;19914;-74
2023/09/15 01:03:32;;;;;;;;;;;;;;;;;;4934554;29;19957;-75
2023/09/15 01:05:57;;;;;;;;;;;;;;;;;;4934828;29;19921;-75
2023/09/15 01:08:23;;;;;;;;;;;;;;;;;;4933883;29;20105;-75
2023/09/15 01:10:48;;;;;;;;;;;;;;;;;;4934092;29;19933;-75
2023/09/15 01:13:13;;;;;;;;;;;;;;;;;;4931960;29;19919;-75
2023/09/15 01:15:38;;;;;;;;;;;;;;;;;;4933797;29;19918;-75
2023/09/15 01:18:03;;;;;;;;;;;;;;;;;;4932435;29;19918;-75
2023/09/15 01:20:28;;;;;;;;;;;;;;;;;;4931935;29;19953;-75
2023/09/15 01:22:53;;;;;;;;;;;;;;;;;;4935289;29;19911;-75
2023/09/15 01:25:19;;;;;;;;;;;;;;;;;;4933163;29;19919;-74
2023/09/15 01:27:44;;;;;;;;;;;;;;;;;;4934624;29;19911;-75
2023/09/15 01:30:10;;;;;;;;;;;;;;;;;;4932978;29;19919;-74
2023/09/15 01:32:35;;;;;;;;;;;;;;;;;;4933200;29;19921;-75
2023/09/15 01:35:00;;;;;;;;;;;;;;;;;;4933177;29;19914;-75
2023/09/15 01:37:26;;;;;;;;;;;;;;;;;;4934095;29;19962;-75
2023/09/15 01:39:52;;;;;;;;;;;;;;;;;;4933403;29;20013;-75
2023/09/15 01:42:17;;;;;;;;;;;;;;;;;;4933524;29;20001;-75
2023/09/15 01:44:43;;;;;;;;;;;;;;;;;;4931737;29;20009;-75
2023/09/15 01:47:08;;;;;;;;;;;;;;;;;;4934669;29;20417;-75
2023/09/15 01:49:33;;;;;;;;;;;;;;;;;;4932197;29;19910;-75
2023/09/15 01:51:59;;;;;;;;;;;;;;;;;;4933176;29;19914;-75
2023/09/15 01:54:25;;;;;;;;;;;;;;;;;;4933882;29;19914;-75
2023/09/15 01:56:50;;;;;;;;;;;;;;;;;;4933249;29;19966;-75
2023/09/15 01:59:16;;;;;;;;;;;;;;;;;;4930830;29;19919;-75
2023/09/15 02:01:41;;;;;;;;;;;;;;;;;;4931789;29;19946;-74
2023/09/15 02:04:06;;;;;;;;;;;;;;;;;;4932548;29;19919;-74
2023/09/15 02:06:31;;;;;;;;;;;;;;;;;;4932233;29;19915;-75
2023/09/15 02:08:57;;;;;;;;;;;;;;;;;;4932317;29;19914;-75
2023/09/15 02:11:22;;;;;;;;;;;;;;;;;;4931403;29;19921;-75
2023/09/15 02:13:47;;;;;;;;;;;;;;;;;;4937171;29;19914;-75
2023/09/15 02:16:12;;;;;;;;;;;;;;;;;;4932897;29;19926;-74
2023/09/15 02:18:37;;;;;;;;;;;;;;;;;;4932782;29;20358;-75
2023/09/15 02:21:03;;;;;;;;;;;;;;;;;;4929328;29;19911;-75
2023/09/15 02:23:28;;;;;;;;;;;;;;;;;;4933712;29;19917;-75
2023/09/15 02:25:53;;;;;;;;;;;;;;;;;;4933861;29;19907;-75
2023/09/15 02:28:19;;;;;;;;;;;;;;;;;;4935616;29;19954;-75
2023/09/15 02:30:44;;;;;;;;;;;;;;;;;;4934493;29;19915;-75
2023/09/15 02:33:09;;;;;;;;;;;;;;;;;;4935310;29;20208;-74
2023/09/15 02:35:34;;;;;;;;;;;;;;;;;;4932183;29;19933;-75
2023/09/15 02:37:59;;;;;;;;;;;;;;;;;;4936979;29;19907;-75
2023/09/15 02:40:24;;;;;;;;;;;;;;;;;;4932202;29;19910;-75
2023/09/15 02:42:50;;;;;;;;;;;;;;;;;;4931539;29;19918;-74
2023/09/15 02:45:15;;;;;;;;;;;;;;;;;;4933272;29;19915;-75
2023/09/15 02:47:40;;;;;;;;;;;;;;;;;;4930551;29;19911;-75
2023/09/15 02:50:05;;;;;;;;;;;;;;;;;;4933077;29;19911;-76
2023/09/15 02:52:31;;;;;;;;;;;;;;;;;;4917030;29;20195;-75
2023/09/15 02:54:56;;;;;;;;;;;;;;;;;;4931179;29;19918;-75
2023/09/15 02:57:21;;;;;;;;;;;;;;;;;;4932294;29;19981;-75
2023/09/15 02:59:46;;;;;;;;;;;;;;;;;;4924323;29;19951;-75
2023/09/15 03:02:12;;;;;;;;;;;;;;;;;;4930903;29;19914;-75
2023/09/15 03:04:38;;;;;;;;;;;;;;;;;;4931223;29;20000;-75
2023/09/15 03:07:03;;;;;;;;;;;;;;;;;;4932506;29;19973;-75
2023/09/15 03:09:31;;;;;;;;;;;;;;;;;;4931439;29;19918;-75
2023/09/15 03:11:56;;;;;;;;;;;;;;;;;;4932115;29;19933;-75
2023/09/15 03:14:21;;;;;;;;;;;;;;;;;;4928293;29;19911;-76
2023/09/15 03:16:46;;;;;;;;;;;;;;;;;;4921188;29;19915;-75
2023/09/15 03:19:11;;;;;;;;;;;;;;;;;;4910539;29;19918;-75
2023/09/15 03:21:36;;;;;;;;;;;;;;;;;;4923915;29;20010;-75
2023/09/15 03:24:01;;;;;;;;;;;;;;;;;;4893124;29;19988;-75
2023/09/15 03:26:27;;;;;;;;;;;;;;;;;;4890937;29;19971;-75
2023/09/15 03:28:52;;;;;;;;;;;;;;;;;;4922970;29;19990;-75
2023/09/15 03:31:17;;;;;;;;;;;;;;;;;;4924252;29;19918;-75
2023/09/15 03:33:42;;;;;;;;;;;;;;;;;;4905338;29;19919;-75
2023/09/15 03:36:07;;;;;;;;;;;;;;;;;;4926089;29;19912;-75
2023/09/15 03:38:33;;;;;;;;;;;;;;;;;;4891715;29;19914;-75
2023/09/15 03:40:59;;;;;;;;;;;;;;;;;;4923428;29;20004;-75
2023/09/15 03:43:24;;;;;;;;;;;;;;;;;;4892185;29;19936;-75
2023/09/15 03:45:49;;;;;;;;;;;;;;;;;;4913025;29;19915;-75
2023/09/15 03:48:14;;;;;;;;;;;;;;;;;;4923134;29;19915;-75
2023/09/15 03:50:39;;;;;;;;;;;;;;;;;;4892396;29;19911;-76
2023/09/15 03:53:04;;;;;;;;;;;;;;;;;;4894530;29;19990;-75
2023/09/15 03:55:29;;;;;;;;;;;;;;;;;;4924550;29;19919;-75
2023/09/15 03:57:55;;;;;;;;;;;;;;;;;;4925247;29;19946;-75
2023/09/15 04:00:21;;;;;;;;;;;;;;;;;;4924055;29;19915;-75
2023/09/15 04:02:46;;;;;;;;;;;;;;;;;;4924631;29;19965;-75
2023/09/15 04:05:12;;;;;;;;;;;;;;;;;;4923257;29;19962;-75
2023/09/15 04:07:37;;;;;;;;;;;;;;;;;;4891570;29;19950;-75
2023/09/15 04:10:03;;;;;;;;;;;;;;;;;;4921040;29;19922;-75
2023/09/15 04:12:28;;;;;;;;;;;;;;;;;;4923003;29;19983;-75
2023/09/15 04:14:53;;;;;;;;;;;;;;;;;;4908190;29;19916;-75
2023/09/15 04:17:18;;;;;;;;;;;;;;;;;;4908299;29;19994;-75
2023/09/15 04:19:43;;;;;;;;;;;;;;;;;;4931074;29;20108;-75
2023/09/15 04:22:08;;;;;;;;;;;;;;;;;;4931215;29;19961;-75
2023/09/15 04:24:34;;;;;;;;;;;;;;;;;;4929949;29;20026;-75
2023/09/15 04:26:59;;;;;;;;;;;;;;;;;;4931378;29;19949;-75
2023/09/15 04:29:24;;;;;;;;;;;;;;;;;;4927173;29;19910;-75
2023/09/15 04:31:49;;;;;;;;;;;;;;;;;;4930237;29;19914;-75
2023/09/15 04:34:14;;;;;;;;;;;;;;;;;;4914192;29;19913;-75
2023/09/15 04:36:39;;;;;;;;;;;;;;;;;;4929584;29;19962;-75
2023/09/15 04:39:05;;;;;;;;;;;;;;;;;;4920211;29;20005;-75
2023/09/15 04:41:30;;;;;;;;;;;;;;;;;;4928691;29;19953;-75
2023/09/15 04:43:56;;;;;;;;;;;;;;;;;;4931551;29;19915;-75
2023/09/15 04:46:22;;;;;;;;;;;;;;;;;;4930032;29;19925;-75
2023/09/15 04:48:47;;;;;;;;;;;;;;;;;;4933067;29;19914;-76
2023/09/15 04:51:12;;;;;;;;;;;;;;;;;;4931014;29;19911;-75
2023/09/15 04:53:37;;;;;;;;;;;;;;;;;;4931412;29;20370;-75
2023/09/15 04:56:03;;;;;;;;;;;;;;;;;;4929738;29;20058;-75
2023/09/15 04:58:28;;;;;;;;;;;;;;;;;;4929557;29;19985;-75
2023/09/15 05:00:54;;;;;;;;;;;;;;;;;;4930299;29;20083;-76
2023/09/15 05:03:20;;;;;;;;;;;;;;;;;;4924693;29;19986;-75
2023/09/15 05:05:49;;;;;;;;;;;;;;;;;;4928760;29;20011;-76
2023/09/15 05:08:14;;;;;;;;;;;;;;;;;;4931885;29;19926;-75
2023/09/15 05:10:39;;;;;;;;;;;;;;;;;;4929590;29;20232;-75
2023/09/15 05:13:05;;;;;;;;;;;;;;;;;;4931514;29;19917;-76
2023/09/15 05:15:30;;;;;;;;;;;;;;;;;;4917079;29;19942;-75
2023/09/15 05:17:55;;;;;;;;;;;;;;;;;;4930868;29;19919;-75
2023/09/15 05:20:20;;;;;;;;;;;;;;;;;;4930111;29;19919;-75
2023/09/15 05:22:45;;;;;;;;;;;;;;;;;;4935118;29;19906;-76
2023/09/15 05:25:10;;;;;;;;;;;;;;;;;;4931225;29;19922;-76
2023/09/15 05:27:35;;;;;;;;;;;;;;;;;;4933401;29;19918;-76
2023/09/15 05:30:00;;;;;;;;;;;;;;;;;;4934878;29;19988;-76
2023/09/15 05:32:26;;;;;;;;;;;;;;;;;;4934148;29;19907;-75
2023/09/15 05:34:51;;;;;;;;;;;;;;;;;;4909157;29;19911;-75
2023/09/15 05:37:16;;;;;;;;;;;;;;;;;;4926358;29;19940;-75
2023/09/15 05:39:41;;;;;;;;;;;;;;;;;;4930873;29;19942;-75
2023/09/15 05:42:07;;;;;;;;;;;;;;;;;;4933999;29;19938;-76
2023/09/15 05:44:32;;;;;;;;;;;;;;;;;;4932934;29;19911;-76
2023/09/15 05:46:57;;;;;;;;;;;;;;;;;;4929499;29;19942;-77
2023/09/15 05:49:22;;;;;;;;;;;;;;;;;;4931385;29;19911;-76
2023/09/15 05:51:47;;;;;;;;;;;;;;;;;;4930278;29;19910;-76
2023/09/15 05:54:12;;;;;;;;;;;;;;;;;;4935654;29;20177;-76
2023/09/15 05:56:37;;;;;;;;;;;;;;;;;;4916958;29;19919;-76
2023/09/15 05:59:04;;;;;;;;;;;;;;;;;;4932859;29;19914;-75
2023/09/15 06:01:29;;;;;;;;;;;;;;;;;;4918108;29;19914;-76
2023/09/15 06:03:54;;;;;;;;;;;;;;;;;;4935372;29;19979;-76
2023/09/15 06:06:19;;;;;;;;;;;;;;;;;;4920090;29;19970;-75
2023/09/15 06:08:44;;;;;;;;;;;;;;;;;;4933703;29;19911;-76
2023/09/15 06:11:09;;;;;;;;;;;;;;;;;;4915906;29;19911;-76
2023/09/15 06:13:34;;;;;;;;;;;;;;;;;;4936219;29;19919;-75
2023/09/15 06:15:59;;;;;;;;;;;;;;;;;;4938959;29;19907;-75
2023/09/15 06:18:24;;;;;;;;;;;;;;;;;;4922640;29;19954;-75
2023/09/15 06:20:50;;;;;;;;;;;;;;;;;;4931684;29;19914;-75
2023/09/15 06:23:15;;;;;;;;;;;;;;;;;;4930577;29;19966;-75
2023/09/15 06:25:40;;;;;;;;;;;;;;;;;;4933153;29;19940;-75
2023/09/15 06:28:06;;;;;;;;;;;;;;;;;;4933178;29;19919;-76
2023/09/15 06:30:31;;;;;;;;;;;;;;;;;;4932663;28;19914;-76
2023/09/15 06:32:56;;;;;;;;;;;;;;;;;;4929230;29;19919;-76
2023/09/15 06:35:21;;;;;;;;;;;;;;;;;;4932465;29;20159;-76
2023/09/15 06:37:46;;;;;;;;;;;;;;;;;;4933223;29;19939;-76
2023/09/15 06:40:12;;;;;;;;;;;;;;;;;;4931383;29;20009;-75
2023/09/15 06:42:37;;;;;;;;;;;;;;;;;;4932708;29;19934;-76
2023/09/15 06:45:03;;;;;;;;;;;;;;;;;;4931937;29;19915;-76
2023/09/15 06:47:28;;;;;;;;;;;;;;;;;;4930591;29;19953;-76
2023/09/15 06:49:53;;;;;;;;;;;;;;;;;;4928882;29;19954;-76
2023/09/15 06:52:18;;;;;;;;;;;;;;;;;;4932998;29;19964;-75
2023/09/15 06:54:44;;;;;;;;;;;;;;;;;;4932969;29;19945;-76
2023/09/15 06:57:09;;;;;;;;;;;;;;;;;;4930180;29;19922;-75
2023/09/15 06:59:34;;;;;;;;;;;;;;;;;;4916277;29;19918;-76
2023/09/15 07:01:59;;;;;;;;;;;;;;;;;;4932819;29;19915;-75
2023/09/15 07:04:24;;;;;;;;;;;;;;;;;;4928954;29;19915;-76
2023/09/15 07:06:49;;;;;;;;;;;;;;;;;;4933356;29;19915;-76
2023/09/15 07:09:14;;;;;;;;;;;;;;;;;;4933850;29;19911;-75
2023/09/15 07:11:39;;;;;;;;;;;;;;;;;;4927620;29;19915;-75
2023/09/15 07:14:05;;;;;;;;;;;;;;;;;;4928582;29;19911;-76
2023/09/15 07:16:30;;;;;;;;;;;;;;;;;;4924282;29;20205;-83
2023/09/15 07:18:55;;;;;;;;;;;;;;;;;;4930431;29;19958;-75
2023/09/15 07:21:20;;;;;;;;;;;;;;;;;;4932410;29;19913;-75
2023/09/15 07:23:45;;;;;;;;;;;;;;;;;;4930709;29;19917;-75
2023/09/15 07:26:10;;;;;;;;;;;;;;;;;;4928764;29;19933;-75
2023/09/15 07:28:35;;;;;;;;;;;;;;;;;;4928550;29;19911;-75
2023/09/15 07:31:00;;;;;;;;;;;;;;;;;;4928322;29;19917;-75
2023/09/15 07:33:25;;;;;;;;;;;;;;;;;;4930441;29;20001;-75
2023/09/15 07:35:51;;;;;;;;;;;;;;;;;;4930342;29;19966;-75
2023/09/15 07:38:16;;;;;;;;;;;;;;;;;;4930628;29;19925;-74
2023/09/15 07:40:41;;;;;;;;;;;;;;;;;;4917568;29;21315;-75
2023/09/15 07:43:06;;;;;;;;;;;;;;;;;;4930585;29;19992;-74
2023/09/15 07:45:31;;;;;;;;;;;;;;;;;;4933000;29;20009;-75
2023/09/15 07:47:56;;;;;;;;;;;;;;;;;;4929800;29;19953;-75
2023/09/15 07:50:22;;;;;;;;;;;;;;;;;;4932698;29;19986;-75
2023/09/15 07:52:47;;;;;;;;;;;;;;;;;;4931143;29;19915;-75
2023/09/15 07:55:12;;;;;;;;;;;;;;;;;;4928339;29;19910;-75
2023/09/15 07:57:37;;;;;;;;;;;;;;;;;;4926498;29;19910;-75
2023/09/15 08:00:02;;;;;;;;;;;;;;;;;;4932203;29;20008;-75
2023/09/15 08:02:27;;;;;;;;;;;;;;;;;;4931265;29;19915;-75
2023/09/15 08:04:52;;;;;;;;;;;;;;;;;;4928822;29;19915;-75
2023/09/15 08:07:17;;;;;;;;;;;;;;;;;;4930533;29;19911;-75
2023/09/15 08:09:43;;;;;;;;;;;;;;;;;;4929743;29;19915;-75
2023/09/15 08:12:08;;;;;;;;;;;;;;;;;;4931030;29;19911;-75
2023/09/15 08:14:33;;;;;;;;;;;;;;;;;;4935000;29;19907;-75
2023/09/15 08:16:58;;;;;;;;;;;;;;;;;;4925642;29;19915;-75
2023/09/15 08:19:23;;;;;;;;;;;;;;;;;;4893287;29;19912;-75
2023/09/15 08:21:48;;;;;;;;;;;;;;;;;;4921936;29;20016;-75
2023/09/15 08:24:13;;;;;;;;;;;;;;;;;;4891924;29;19919;-75
2023/09/15 08:26:38;;;;;;;;;;;;;;;;;;4892480;29;20013;-75
2023/09/15 08:29:04;;;;;;;;;;;;;;;;;;4889080;29;19911;-75
2023/09/15 08:31:30;;;;;;;;;;;;;;;;;;4889068;29;19922;-75
2023/09/15 08:33:55;;;;;;;;;;;;;;;;;;4893432;29;19969;-75
2023/09/15 08:36:20;;;;;;;;;;;;;;;;;;4907766;29;19912;-75
2023/09/15 08:38:45;;;;;;;;;;;;;;;;;;4922932;29;19919;-75
2023/09/15 08:41:10;;;;;;;;;;;;;;;;;;4891785;29;19915;-75
2023/09/15 08:43:35;;;;;;;;;;;;;;;;;;4914272;29;19959;-75
2023/09/15 08:46:00;;;;;;;;;;;;;;;;;;4892592;29;20290;-75
2023/09/15 08:48:25;;;;;;;;;;;;;;;;;;4909380;29;19985;-75
2023/09/15 08:50:51;;;;;;;;;;;;;;;;;;4911136;29;19950;-75
2023/09/15 08:53:16;;;;;;;;;;;;;;;;;;4925714;29;19942;-75
2023/09/15 08:55:41;;;;;;;;;;;;;;;;;;4907568;29;19966;-75
2023/09/15 08:58:06;;;;;;;;;;;;;;;;;;4897533;29;19911;-75
2023/09/15 09:00:31;;;;;;;;;;;;;;;;;;4894220;29;19919;-75
2023/09/15 09:02:56;;;;;;;;;;;;;;;;;;4897945;29;19926;-75
2023/09/15 09:05:21;;;;;;;;;;;;;;;;;;4916722;29;19915;-75
2023/09/15 09:07:46;;;;;;;;;;;;;;;;;;4921969;29;19925;-75
2023/09/15 09:10:12;;;;;;;;;;;;;;;;;;4892300;29;20002;-74
2023/09/15 09:12:37;;;;;;;;;;;;;;;;;;4896122;29;19919;-74
2023/09/15 09:15:02;;;;;;;;;;;;;;;;;;4926773;29;20002;-75
2023/09/15 09:17:28;;;;;;;;;;;;;;;;;;4904122;29;20055;-75
2023/09/15 09:19:53;;;;;;;;;;;;;;;;;;4916752;29;19911;-75
2023/09/15 09:22:18;;;;;;;;;;;;;;;;;;4930858;29;19923;-75
2023/09/15 09:24:45;;;;;;;;;;;;;;;;;;4929252;29;19922;-75
2023/09/15 09:27:10;;;;;;;;;;;;;;;;;;4913464;29;19911;-75
2023/09/15 09:29:35;;;;;;;;;;;;;;;;;;4928132;29;19918;-75
2023/09/15 09:32:00;;;;;;;;;;;;;;;;;;4916184;29;19907;-75
2023/09/15 09:34:26;;;;;;;;;;;;;;;;;;4914261;29;20001;-75
2023/09/15 09:36:51;;;;;;;;;;;;;;;;;;4916481;29;19973;-75
2023/09/15 09:39:16;;;;;;;;;;;;;;;;;;4914086;29;20006;-75
2023/09/15 09:41:41;;;;;;;;;;;;;;;;;;4929287;29;19915;-75
2023/09/15 09:44:07;;;;;;;;;;;;;;;;;;4931175;29;19934;-75
2023/09/15 09:46:36;;;;;;;;;;;;;;;;;;4914440;29;19993;-75
2023/09/15 09:49:01;;;;;;;;;;;;;;;;;;4931101;29;19911;-75
2023/09/15 09:51:28;;;;;;;;;;;;;;;;;;4915415;29;19917;-75
2023/09/15 09:53:55;;;;;;;;;;;;;;;;;;4916147;29;19907;-75
2023/09/15 09:56:20;;;;;;;;;;;;;;;;;;4914962;29;19911;-75
2023/09/15 09:58:45;;;;;;;;;;;;;;;;;;4914428;29;20006;-75
2023/09/15 10:01:11;;;;;;;;;;;;;;;;;;4911690;29;19911;-75
2023/09/15 10:03:36;;;;;;;;;;;;;;;;;;4914263;29;19911;-75
2023/09/15 10:06:03;;;;;;;;;;;;;;;;;;4914187;29;19919;-75
2023/09/15 10:08:29;;;;;;;;;;;;;;;;;;4913996;29;19918;-75
2023/09/15 10:10:55;;;;;;;;;;;;;;;;;;4915873;29;19926;-75
2023/09/15 10:13:20;;;;;;;;;;;;;;;;;;4930892;29;19911;-75
2023/09/15 10:15:45;;;;;;;;;;;;;;;;;;4913134;29;19914;-75
2023/09/15 10:18:14;;;;;;;;;;;;;;;;;;4924936;29;19946;-75
2023/09/15 10:20:39;;;;;;;;;;;;;;;;;;4932920;29;19911;-75
2023/09/15 10:23:05;;;;;;;;;;;;;;;;;;4939191;29;19933;-74
2023/09/15 10:25:30;;;;;;;;;;;;;;;;;;4916935;29;19922;-75
2023/09/15 10:27:55;;;;;;;;;;;;;;;;;;4928610;29;19947;-75
2023/09/15 10:30:20;;;;;;;;;;;;;;;;;;4934026;29;19915;-75
2023/09/15 10:32:45;;;;;;;;;;;;;;;;;;4929890;29;19922;-75
2023/09/15 10:35:11;;;;;;;;;;;;;;;;;;4936010;29;19918;-75
2023/09/15 10:37:36;;;;;;;;;;;;;;;;;;4931610;29;20395;-75
2023/09/15 10:40:02;;;;;;;;;;;;;;;;;;4938611;29;19983;-75
2023/09/15 10:42:27;;;;;;;;;;;;;;;;;;4940163;29;19974;-75
2023/09/15 10:44:52;;;;;;;;;;;;;;;;;;4934353;29;19914;-75
2023/09/15 10:47:17;;;;;;;;;;;;;;;;;;4933792;29;19915;-75
2023/09/15 10:49:42;;;;;;;;;;;;;;;;;;4933820;29;20017;-75
2023/09/15 10:52:08;;;;;;;;;;;;;;;;;;4934375;29;19914;-75
2023/09/15 10:54:38;;;;;;;;;;;;;;;;;;4930219;29;19914;-75
2023/09/15 10:57:03;;;;;;;;;;;;;;;;;;4933793;29;19918;-75
2023/09/15 10:59:28;;;;;;;;;;;;;;;;;;4916738;29;19906;-75
2023/09/15 11:01:53;;;;;;;;;;;;;;;;;;4932591;29;19914;-75
2023/09/15 11:04:21;;;;;;;;;;;;;;;;;;4933160;29;19911;-75
2023/09/15 11:06:46;;;;;;;;;;;;;;;;;;4934829;29;19982;-75
2023/09/15 11:09:11;;;;;;;;;;;;;;;;;;4917950;29;20009;-75
2023/09/15 11:11:36;;;;;;;;;;;;;;;;;;4930265;29;19910;-75
2023/09/15 11:14:02;;;;;;;;;;;;;;;;;;4935055;29;19914;-75
2023/09/15 11:16:27;;;;;;;;;;;;;;;;;;4932439;29;20359;-75
2023/09/15 11:18:52;;;;;;;;;;;;;;;;;;4933667;29;20001;-75
2023/09/15 11:21:17;;;;;;;;;;;;;;;;;;4934715;29;19913;-76
2023/09/15 11:23:42;;;;;;;;;;;;;;;;;;4930489;29;19913;-75
2023/09/15 11:26:09;;;;;;;;;;;;;;;;;;4932606;29;19917;-75
2023/09/15 11:28:34;;;;;;;;;;;;;;;;;;4932800;29;19915;-75
2023/09/15 11:30:59;;;;;;;;;;;;;;;;;;4932657;29;19978;-75
2023/09/15 11:33:25;;;;;;;;;;;;;;;;;;4932461;29;19953;-75
2023/09/15 11:35:50;;;;;;;;;;;;;;;;;;4931737;29;19965;-75
2023/09/15 11:38:15;;;;;;;;;;;;;;;;;;4934197;29;19922;-75
2023/09/15 11:40:40;;;;;;;;;;;;;;;;;;4932044;29;19911;-75
2023/09/15 11:43:05;;;;;;;;;;;;;;;;;;4933577;29;19907;-75
2023/09/15 11:45:30;;;;;;;;;;;;;;;;;;4928598;29;19915;-75
2023/09/15 11:47:55;;;;;;;;;;;;;;;;;;4933177;29;19911;-75
2023/09/15 11:50:21;;;;;;;;;;;;;;;;;;4931377;29;20001;-75
2023/09/15 11:52:46;;;;;;;;;;;;;;;;;;4935829;29;19922;-75
2023/09/15 11:55:11;;;;;;;;;;;;;;;;;;4931937;29;19907;-75
2023/09/15 11:57:36;;;;;;;;;;;;;;;;;;4932867;29;19915;-82
2023/09/15 12:00:02;;;;;;;;;;;;;;;;;;4923858;29;19910;-77
2023/09/15 12:02:27;;;;;;;;;;;;;;;;;;4932499;29;19914;-76
2023/09/15 12:04:52;;;;;;;;;;;;;;;;;;4928759;29;19914;-77
2023/09/15 12:07:17;;;;;;;;;;;;;;;;;;4927096;29;19934;-77
2023/09/15 12:09:42;;;;;;;;;;;;;;;;;;4925923;29;19915;-77
2023/09/15 12:12:09;;;;;;;;;;;;;;;;;;4928236;29;19911;-77
2023/09/15 12:14:34;;;;;;;;;;;;;;;;;;4926869;29;19990;-76
2023/09/15 12:16:59;;;;;;;;;;;;;;;;;;4926337;29;20017;-77
2023/09/15 12:19:24;;;;;;;;;;;;;;;;;;4926193;29;19939;-76
2023/09/15 12:21:50;;;;;;;;;;;;;;;;;;4931189;29;19948;-77
2023/09/15 12:24:16;;;;;;;;;;;;;;;;;;4929355;29;19962;-77
2023/09/15 12:26:42;;;;;;;;;;;;;;;;;;4934628;29;19997;-77
2023/09/15 12:29:07;;;;;;;;;;;;;;;;;;4933580;29;20223;-77
2023/09/15 12:31:33;;;;;;;;;;;;;;;;;;4931210;29;19958;-77
2023/09/15 12:34:00;;;;;;;;;;;;;;;;;;4944288;29;19906;-77
2023/09/15 12:36:25;;;;;;;;;;;;;;;;;;4928981;29;19986;-78
2023/09/15 12:38:51;;;;;;;;;;;;;;;;;;4930216;29;20009;-77
2023/09/15 12:41:16;;;;;;;;;;;;;;;;;;4938244;29;19911;-77
2023/09/15 12:43:41;;;;;;;;;;;;;;;;;;4933461;29;20121;-77
2023/09/15 12:46:06;;;;;;;;;;;;;;;;;;4927243;29;19925;-77
2023/09/15 12:48:31;;;;;;;;;;;;;;;;;;4931431;29;20001;-77
2023/09/15 12:50:56;;;;;;;;;;;;;;;;;;4937077;29;19910;-77
2023/09/15 12:53:21;;;;;;;;;;;;;;;;;;4928277;29;19911;-77
2023/09/15 12:55:46;;;;;;;;;;;;;;;;;;4925396;29;19982;-77
2023/09/15 12:58:13;;;;;;;;;;;;;;;;;;4927492;29;19945;-77
2023/09/15 13:00:38;;;;;;;;;;;;;;;;;;4924825;29;19946;-77
2023/09/15 13:03:03;;;;;;;;;;;;;;;;;;4932863;29;19911;-77
2023/09/15 13:05:28;;;;;;;;;;;;;;;;;;4936611;29;19939;-77
2023/09/15 13:07:54;;;;;;;;;;;;;;;;;;4930619;29;19966;-77
2023/09/15 13:10:19;;;;;;;;;;;;;;;;;;4929010;29;20049;-77
2023/09/15 13:12:44;;;;;;;;;;;;;;;;;;4937334;29;19910;-78
2023/09/15 13:15:09;;;;;;;;;;;;;;;;;;4935949;29;19958;-77
2023/09/15 13:17:34;;;;;;;;;;;;;;;;;;4936856;29;20038;-76
2023/09/15 13:20:03;;;;;;;;;;;;;;;;;;4934844;29;19919;-77
2023/09/15 13:22:31;;;;;;;;;;;;;;;;;;4934047;29;19915;-77
2023/09/15 13:24:56;;;;;;;;;;;;;;;;;;4936522;29;19925;-77
2023/09/15 13:27:21;;;;;;;;;;;;;;;;;;4918569;29;19965;-77
2023/09/15 13:29:46;;;;;;;;;;;;;;;;;;4933260;29;19925;-77
2023/09/15 13:32:12;;;;;;;;;;;;;;;;;;4937639;29;19918;-77
2023/09/15 13:34:37;;;;;;;;;;;;;;;;;;4933174;29;19911;-77
2023/09/15 13:37:02;;;;;;;;;;;;;;;;;;4936151;29;19910;-77
2023/09/15 13:39:27;;;;;;;;;;;;;;;;;;4919460;29;19910;-77
2023/09/15 13:41:52;;;;;;;;;;;;;;;;;;4922536;29;20077;-76
2023/09/15 13:44:17;;;;;;;;;;;;;;;;;;4931100;29;19926;-77
2023/09/15 13:46:42;;;;;;;;;;;;;;;;;;4937147;29;19921;-77
2023/09/15 13:49:08;;;;;;;;;;;;;;;;;;4933374;29;19911;-76
2023/09/15 13:51:33;;;;;;;;;;;;;;;;;;4935066;29;19966;-75
2023/09/15 13:53:58;;;;;;;;;;;;;;;;;;4935879;29;19910;-75
2023/09/15 13:56:24;;;;;;;;;;;;;;;;;;4937489;29;19910;-76
2023/09/15 13:58:49;;;;;;;;;;;;;;;;;;4935782;29;19934;-76
2023/09/15 14:01:14;;;;;;;;;;;;;;;;;;4930806;29;19914;-75
2023/09/15 14:03:44;;;;;;;;;;;;;;;;;;4929807;29;19911;-75
2023/09/15 14:06:09;;;;;;;;;;;;;;;;;;4937712;29;19953;-76
2023/09/15 14:08:34;;;;;;;;;;;;;;;;;;4936598;29;19938;-76
2023/09/15 14:10:59;;;;;;;;;;;;;;;;;;4931083;29;19938;-76
2023/09/15 14:13:24;;;;;;;;;;;;;;;;;;4929493;29;19938;-76
2023/09/15 14:15:49;;;;;;;;;;;;;;;;;;4930585;29;19941;-76
2023/09/15 14:18:14;;;;;;;;;;;;;;;;;;4931779;29;19922;-75
2023/09/15 14:20:39;;;;;;;;;;;;;;;;;;4929522;29;19910;-76
2023/09/15 14:23:04;;;;;;;;;;;;;;;;;;4943536;29;19966;-75
2023/09/15 14:25:30;;;;;;;;;;;;;;;;;;4919457;29;19919;-80
2023/09/15 14:27:55;;;;;;;;;;;;;;;;;;4931896;29;19915;-72
2023/09/15 14:30:20;;;;;;;;;;;;;;;;;;4934298;29;20171;-73
2023/09/15 14:32:45;;;;;;;;;;;;;;;;;;4933006;29;19911;-73
2023/09/15 14:35:11;;;;;;;;;;;;;;;;;;4933171;29;19914;-73
2023/09/15 14:37:36;;;;;;;;;;;;;;;;;;4929431;29;20259;-72
2023/09/15 14:40:05;;;;;;;;;;;;;;;;;;4940175;29;19980;-73
2023/09/15 14:42:30;;;;;;;;;;;;;;;;;;4933468;29;20324;-73
2023/09/15 14:44:55;;;;;;;;;;;;;;;;;;4932851;29;19918;-72
2023/09/15 14:47:20;;;;;;;;;;;;;;;;;;4932785;29;19915;-72
2023/09/15 14:49:45;;;;;;;;;;;;;;;;;;4933136;29;19915;-73
2023/09/15 14:52:11;;;;;;;;;;;;;;;;;;4935519;29;19965;-73
2023/09/15 14:54:36;;;;;;;;;;;;;;;;;;4934347;29;19977;-73
2023/09/15 14:57:01;;;;;;;;;;;;;;;;;;4932306;29;19918;-73
2023/09/15 14:59:26;;;;;;;;;;;;;;;;;;4934171;29;20054;-73
2023/09/15 15:01:52;;;;;;;;;;;;;;;;;;4918163;29;19911;-73
2023/09/15 15:04:17;;;;;;;;;;;;;;;;;;4929293;29;19911;-73
2023/09/15 15:06:43;;;;;;;;;;;;;;;;;;4936544;29;19914;-73
2023/09/15 15:09:09;;;;;;;;;;;;;;;;;;4939133;29;19929;-73
2023/09/15 15:11:34;;;;;;;;;;;;;;;;;;4936568;29;20005;-72
2023/09/15 15:13:59;;;;;;;;;;;;;;;;;;4932353;29;19950;-73
2023/09/15 15:16:24;;;;;;;;;;;;;;;;;;4931138;29;19910;-72
2023/09/15 15:18:49;;;;;;;;;;;;;;;;;;4932930;29;19922;-73
2023/09/15 15:21:15;;;;;;;;;;;;;;;;;;4932729;29;19910;-73
2023/09/15 15:23:40;;;;;;;;;;;;;;;;;;4931436;29;19910;-73
2023/09/15 15:26:05;;;;;;;;;;;;;;;;;;4929638;29;19969;-72
2023/09/15 15:28:30;;;;;;;;;;;;;;;;;;4931401;29;19958;-73
2023/09/15 15:30:55;;;;;;;;;;;;;;;;;;4932374;29;19938;-73
2023/09/15 15:33:20;;;;;;;;;;;;;;;;;;4931915;29;19932;-73
2023/09/15 15:35:46;;;;;;;;;;;;;;;;;;4924633;29;19927;-72
2023/09/15 15:38:11;;;;;;;;;;;;;;;;;;4932820;29;19929;-72
2023/09/15 15:40:36;;;;;;;;;;;;;;;;;;4914635;29;19910;-72
2023/09/15 15:43:02;;;;;;;;;;;;;;;;;;4932482;29;19934;-72
2023/09/15 15:45:27;;;;;;;;;;;;;;;;;;4926928;29;19914;-73
2023/09/15 15:47:52;;;;;;;;;;;;;;;;;;4928902;29;19934;-72
2023/09/15 15:50:17;;;;;;;;;;;;;;;;;;4932352;29;19930;-72
2023/09/15 15:52:43;;;;;;;;;;;;;;;;;;4932416;29;19910;-72
2023/09/15 15:55:08;;;;;;;;;;;;;;;;;;4929915;29;20054;-73
2023/09/15 15:57:33;;;;;;;;;;;;;;;;;;4931866;29;19993;-73
2023/09/15 15:59:58;;;;;;;;;;;;;;;;;;4930746;29;19914;-73
2023/09/15 16:02:24;;;;;;;;;;;;;;;;;;4931328;29;19907;-72
2023/09/15 16:04:49;;;;;;;;;;;;;;;;;;4927971;29;19929;-73
2023/09/15 16:07:14;;;;;;;;;;;;;;;;;;4933832;29;19911;-72
2023/09/15 16:09:39;;;;;;;;;;;;;;;;;;4932709;29;20001;-73
2023/09/15 16:12:07;;;;;;;;;;;;;;;;;;4931561;29;19922;-73
2023/09/15 16:14:33;;;;;;;;;;;;;;;;;;4929667;29;19910;-73
2023/09/15 16:16:58;;;;;;;;;;;;;;;;;;4932287;29;19919;-73
2023/09/15 16:19:23;;;;;;;;;;;;;;;;;;4931419;29;19959;-72
2023/09/15 16:21:48;;;;;;;;;;;;;;;;;;4929892;29;19914;-73
2023/09/15 16:24:13;;;;;;;;;;;;;;;;;;4931509;29;19910;-72
2023/09/15 16:26:38;;;;;;;;;;;;;;;;;;4931742;29;19919;-72
2023/09/15 16:29:03;;;;;;;;;;;;;;;;;;4932559;29;19918;-73
2023/09/15 16:31:30;;;;;;;;;;;;;;;;;;4929404;29;19919;-73